ジッダ の空港の天気 - METARとTAF

キング・アブドゥルアズィーズ国際空港(ジッダ) ( OEJN / JED ) - サウジアラビア ジッダ
飛行場実況気象(Metar)
観測時間08/17 14:00 AST (08/17 11:00 UTC)
風向・風速北北西 10m/s
視程7000m
天気現象
なし
気温40℃
湿度34%
気圧1002hPa
METAROEJN 171100Z 34020KT 7000 NSC 40/21 Q1002 NOSIG
過去の天気等 Google飛行場航空写真 Wunderground天気予報

過去48時間のMETAR

飛行場予報(TAF)
発表時間: 8/17 14:00 AST (8/17 11:00 UTC)
予報対象時間: 17日15時 AST ~ 18日21時 AST
風向・風速北北西 5m/s 瞬間風速 10m/s
視程7000m
少しの雲 雲底高度 1220m
17日15時 AST ~ 17日21時 AST に一時的に
視程3500m
天気現象風塵 高い風塵
17日21時 AST ~ 17日23時 AST に徐々に
風向・風速北北東 3m/s
TAF OEJN 171100Z 1712/1818 33010G20KT 7000 FEW040
TEMPO 1712/1718 3500 DU BLDU
BECMG 1718/1720 02006KT